Terminal Aerodrome Forecast
Issued by NWS

Home | Current Version | Previous Version | Text Only | Print | Product List | Glossary On
Versions: 1 2 3 4 5 6 7 8 9 10 11 12 13 14 15 16 17 18 19 20 21 22 23 24 25 26 27 28 29
000
FTAK31 PANC 040529
TAFADL
TAF
PADL 040529Z 0406/0506 21009KT P6SM BKN070 BKN200
     FM041200 03012G19KT P6SM -SHRA SCT025 OVC040
     FM041500 05014G23KT 5SM -RA BR OVC020 WS020/10035KT
     FM041800 05015G25KT 3SM -RA BR BKN007 OVC012 WS020/10035KT
     FM050200 11012G18KT 5SM -RA BR SCT007 OVC012
      AMD LTD TO CLD VIS AND WIND 0407/0416=

USA.gov is the U.S. government's official web portal to all federal, state and local government web resources and services.